Aérodrome :
LOGIN :

S'inscrire | Disclaimer

   EN    FR    IT 

 










Légende :    VFR   VFR Marginal   IFR   IFR Intensif   IFR Très Intensif
Visi : 
Plafond : 
>= 8 km
>= 3000ft
5 à 8 km
1000 à 3000 ft
1500m à 5 km
500 à 1000 ft
800 à 1500m
200 à 500 ft
< 800m
< 200 ft
Symboles :   Orages  Brouillard  Fortes neiges  Fortes précipitations  Vent > 20 kt
SIGMETs :   Divers  Orages  Givrage  Turbulence  Onde Orograph.  Cendres Volcan.






- Altitude de l'aérodrome : 784 ft
- Code IATA : TZL


LQTZ - Tuzla

DERNIER METAR :
  • 200100Z VRB02KT 4500 BR FEW002 BKN015 OVC022 M01/M01 Q1037

METARs EXPIRÉS :
  • 200000Z VRB02KT 5000 BR FEW002 BKN014 OVC020 M00/M01 Q1036
  • 192300Z 27003KT 5000 BR FEW002 BKN014 OVC021 M00/M01 Q1036

TAF TAF LQTZ
Valide du 20 à 00h jusqu'au 21 à 00h UTC


192300Z 2000/2024 VRB02KT 5000 BR SCT010 BKN035 TX01/2013Z TNM02/2006Z
TEMPO 2000/2011 2000 BKN005 BKN030
PROB30
TEMPO 2002/2009 0500 FZFG BKN003
TEMPO 2017/2024 1500 BKN003
PROB40
TEMPO 2020/2024 0500 FZFG BKN002



MET'MAP, la Météo Aéronautique d'un coup d'oeil ! - Copyright ORBIFLY Décembre 2007 - Disclaimer

ORBIFLY MET'MAP TEAM :

Programmation & Développement : Alexandra Zaïnal
Sur une idée originale de : Baudouin d'Aumeries
Assistance à la programmation : Marc-Olivier Méhu
Soutien technique & logistique : Manuel Goepfert

Contact : metmap@orbifly.com




SOURCES & CREDITS :

   NOAA